CYRJCYYY

Guest
Details From CYRJ - ROBERVAL
To CYYY - MONT JOLI
Flight Number -
Tags generated
Created
Modified
Stats Distance 178 nm / 329 km
Max Altitude 17,800 ft / 5,425 m
Waypoints 4
Social Downloads 0
Likes 0
Share VATSIM

Download

Looking for another format? Having issues loading an existing format? Contact us
Advertisement - Login to hide

Notes

Basic altitude profile: - Ascent Rate: 2500ft/min - Ascent Speed: 250kts - Cruise Altitude: 35000ft - Cruise Speed: 420kts - Descent Rate: 1500ft/min - Descent Speed: 250kts Options: - Use NATs: yes - Use PACOTS: yes - Use low airways: yes - Use high airways: yes

Route

CYRJ VBS J579 YYY CYYY

ID Type Via Altitude Latitude Longitude Leg Dist Tot Dist Heading (true) Name
O CYRJ APT - 0 ft / 0 m 48.52000˚ -72.26556˚ - 0 nm - ROBERVAL
VBS VOR - 17,800 ft / 5,425 m 48.01722˚ -71.26667˚ 50 nm 50 nm 127° / 127° SAGUENAY VOR-DME
YYY DME J579 (AWY-HI) 17,000 ft / 5,182 m 48.61214˚ -68.20899˚ 127 nm 177 nm 73° / 75° MONT JOLI VOR-DME
O CYYY APT - 0 ft / 0 m 48.60725˚ -68.20923˚ 0 nm 177 nm 182° / 182° MONT JOLI

Altitude Profile

Advertisement - Login to hide

Weather


0- 5 10 15 20 25 30 35+ Temperature / ° C

Clouds and Precipitation
Forecast for 2018-05-21 06:00 UTC. Updated 3 hours ago

Ground ~20,000 ft ~40,000 ft Winds

CYRJ

Details ICAO CYRJ (YRJ)
Name ROBERVAL
Region Canada
Timezone America/Montreal (UTC-4.0)
Stats Elevation 586 ft / 179 m (AMSL)
Location 48.520001° -72.265556°
Runways 1
Magnetic Variation 16.038° W

METAR

CYRJ 210700Z 26005KT 20SM FEW060 07/M00 A2994 RMK SC1 SC TR SLP145

Decode

TAF

Not found

Departure Runways

ID Width Length Bearing (true) Bearing (mag) Surface Threshold Offset Overrun Length
16 150 ft / 46 m 5,096 ft / 1,553 m 142.69° 158.73° Asphalt 0 ft / 0 m 0 ft / 0 m
34 150 ft / 46 m 5,096 ft / 1,553 m 322.70° 338.74° Asphalt 0 ft / 0 m 0 ft / 0 m

CYYY

Details ICAO CYYY (YYY)
Name MONT JOLI
Region Canada
Timezone America/Montreal (UTC-4.0)
Stats Elevation 172 ft / 52 m (AMSL)
Location 48.607251° -68.209228°
Runways 2
Magnetic Variation 17.584° W

METAR

CYYY 210700Z 21009KT 30SM SCT100 08/M01 A2985 RMK AC4 SLP110

Decode

TAF

TAF CYYY 210738Z 2108/2120 23010KT P6SM SCT100 FM211000 26012KT P6SM SKC BECMG 2110/2112 26015G25KT FM211600 27018G28KT P6SM BKN080 RMK NXT FCST BY 211400Z

Decode

Destination Runways

ID Width Length Bearing (true) Bearing (mag) Surface Threshold Offset Overrun Length
06 150 ft / 46 m 5,986 ft / 1,824 m 38.83° 56.41° Asphalt 500 ft / 152 m 0 ft / 0 m
15 150 ft / 46 m 3,929 ft / 1,197 m 132.96° 150.54° Asphalt 0 ft / 0 m 0 ft / 0 m
24 150 ft / 46 m 5,986 ft / 1,824 m 218.84° 236.42° Asphalt 0 ft / 0 m 0 ft / 0 m
33 150 ft / 46 m 3,929 ft / 1,197 m 312.97° 330.55° Asphalt 230 ft / 70 m 0 ft / 0 m

Approach Navaids

Runway Type Ident Frequency Range Bearing (true) Bearing (mag) Slope Elevation
06 Localiser IYY 109.70 MHz 18 nm / 33 km 38.40° 55.98° - 172 ft / 52 m (AMSL)